Time;durP1;ratioP1;P1;durP2;ratioP2;P2;SDS_P1;SDS_P2;PMS_P1;PMS_P2;Temp;Humidity;BMP_temperature;BMP_pressure;BME280_temperature;BME280_humidity;BME280_pressure;Samples;Min_cycle;Max_cycle;Signal;HPM_P1;HPM_P2
2023/01/14 00:01:30;;;;;;;3.77;0.60;;;;;;;9.30;79.44;95558.47;5071347;28;20490;-60
2023/01/14 00:03:59;;;;;;;1.13;1.13;;;;;;;9.34;79.88;95552.44;5072575;28;20440;-60
2023/01/14 00:06:30;;;;;;;1.30;1.30;;;;;;;9.41;79.58;95557.50;5072965;28;20429;-60
2023/01/14 00:09:01;;;;;;;1.17;0.90;;;;;;;9.18;79.71;95558.69;5072483;28;20434;-60
2023/01/14 00:14:17;;;;;;;1.93;1.83;;;;;;;8.86;83.65;95557.88;5072754;28;20432;-60
2023/01/14 00:16:47;;;;;;;2.17;1.97;;;;;;;8.93;82.83;95561.91;5072419;28;20443;-60
2023/01/14 00:19:16;;;;;;;0.80;0.80;;;;;;;8.70;83.57;95569.41;5072373;28;20461;-60
2023/01/14 00:21:44;;;;;;;0.50;0.50;;;;;;;8.55;86.03;95561.34;5072331;28;20448;-60
2023/01/14 00:24:14;;;;;;;0.90;0.77;;;;;;;8.39;87.42;95568.31;5072470;28;20425;-60
2023/01/14 00:26:43;;;;;;;2.20;1.03;;;;;;;7.82;89.65;95493.22;5071513;28;20886;-60
2023/01/14 00:29:17;;;;;;;1.13;0.87;;;;;;;8.46;87.95;95555.69;5076049;28;20498;-60
2023/01/14 00:31:47;;;;;;;1.53;1.40;;;;;;;8.47;88.27;95559.13;5072125;28;20428;-60
2023/01/14 00:34:16;;;;;;;1.23;1.00;;;;;;;8.62;86.97;95560.09;5071904;28;20483;-60
2023/01/14 00:36:45;;;;;;;1.93;1.83;;;;;;;8.80;85.98;95558.91;5071927;28;20436;-61
2023/01/14 00:39:16;;;;;;;1.77;1.67;;;;;;;8.64;85.13;95550.06;5072047;28;20547;-60
2023/01/14 00:41:44;;;;;;;0.97;0.83;;;;;;;8.10;86.50;95493.78;5071437;28;20945;-60
2023/01/14 00:44:13;;;;;;;2.60;2.10;;;;;;;8.42;86.15;95557.25;5070460;28;21098;-60
2023/01/14 00:46:43;;;;;;;0.70;0.70;;;;;;;8.36;86.93;95571.44;5071034;28;20441;-60
2023/01/14 00:49:17;;;;;;;0.80;0.80;;;;;;;8.25;87.72;95557.28;5070442;28;20973;-61
2023/01/14 00:51:45;;;;;;;1.77;0.57;;;;;;;7.90;91.03;95545.53;5072391;28;20420;-60
2023/01/14 00:54:14;;;;;;;0.97;0.97;;;;;;;8.22;89.56;95559.66;5071314;28;20446;-60
2023/01/14 00:56:42;;;;;;;1.37;1.00;;;;;;;7.84;95.08;95557.09;5071980;28;20524;-60
2023/01/14 00:59:17;;;;;;;0.80;0.80;;;;;;;7.92;94.38;95556.69;5071487;28;20482;-60
2023/01/14 01:01:48;;;;;;;2.83;0.53;;;;;;;8.14;92.71;95549.53;5071024;28;20481;-60
2023/01/14 01:04:17;;;;;;;1.33;1.33;;;;;;;8.06;93.83;95553.41;5070595;28;20430;-60
2023/01/14 01:06:45;;;;;;;1.17;0.93;;;;;;;7.97;95.68;95548.81;5071369;28;20461;-60
2023/01/14 01:09:14;;;;;;;0.87;0.80;;;;;;;8.23;92.59;95555.94;5071955;28;20429;-61
2023/01/14 01:11:42;;;;;;;0.80;0.80;;;;;;;8.24;91.95;95544.34;5071705;28;20445;-61
2023/01/14 01:14:10;;;;;;;2.43;0.80;;;;;;;7.98;90.54;95497.59;5071479;28;20428;-61
2023/01/14 01:16:40;;;;;;;0.70;0.70;;;;;;;8.16;91.21;95547.44;5071029;28;20433;-61
2023/01/14 01:19:09;;;;;;;3.90;0.80;;;;;;;8.26;90.40;95548.38;5071755;28;20564;-61
2023/01/14 01:21:38;;;;;;;0.60;0.60;;;;;;;8.25;90.05;95544.09;5071407;28;20482;-61
2023/01/14 01:24:07;;;;;;;3.43;0.40;;;;;;;8.28;88.97;95527.78;5071420;28;20917;-61
2023/01/14 01:26:35;;;;;;;1.43;1.27;;;;;;;8.32;88.39;95528.88;5070931;28;20431;-61
2023/01/14 01:29:04;;;;;;;2.10;2.00;;;;;;;8.44;87.84;95534.03;5071320;28;20479;-60
2023/01/14 01:31:32;;;;;;;0.40;0.30;;;;;;;8.18;89.51;95542.69;5071520;28;20515;-60
2023/01/14 01:34:01;;;;;;;0.73;0.73;;;;;;;8.17;90.98;95549.81;5071278;28;20432;-60
2023/01/14 01:36:30;;;;;;;0.30;0.20;;;;;;;8.40;88.66;95532.13;5071521;28;20844;-60
2023/01/14 01:38:59;;;;;;;2.10;0.30;;;;;;;8.54;87.18;95539.41;5070714;28;20488;-60
2023/01/14 01:41:28;;;;;;;0.70;0.70;;;;;;;8.63;86.65;95532.59;5071480;28;20951;-60
2023/01/14 01:44:02;;;;;;;0.87;0.87;;;;;;;8.37;86.70;95525.50;5071316;28;20436;-60
2023/01/14 01:46:32;;;;;;;0.97;0.97;;;;;;;7.86;90.49;95521.50;5071488;28;20429;-60
2023/01/14 01:49:09;;;;;;;3.13;1.23;;;;;;;7.79;94.78;95530.66;5071160;28;20993;-59
2023/01/14 01:51:47;;;;;;;1.30;1.30;;;;;;;7.64;93.66;95484.56;5071471;28;20464;-60
2023/01/14 01:54:17;;;;;;;0.50;0.30;;;;;;;8.33;89.34;95524.41;5071349;28;20467;-60
2023/01/14 01:56:46;;;;;;;0.47;0.43;;;;;;;8.24;88.67;95518.75;5071317;28;20913;-60
2023/01/14 01:59:19;;;;;;;4.70;0.77;;;;;;;7.99;89.72;95522.97;5071315;28;20520;-59
2023/01/14 02:01:48;;;;;;;1.00;0.90;;;;;;;8.29;87.70;95513.56;5071246;28;20438;-61
2023/01/14 02:04:17;;;;;;;0.40;0.40;;;;;;;8.48;86.75;95516.63;5071307;28;20429;-60
2023/01/14 02:06:46;;;;;;;1.23;0.73;;;;;;;8.38;86.88;95516.53;5075398;28;20458;-60
2023/01/14 02:09:16;;;;;;;0.63;0.63;;;;;;;7.99;89.86;95525.59;5074907;28;20428;-60
2023/01/14 02:11:58;;;;;;;0.97;0.97;;;;;;;7.72;94.70;95524.75;5074819;28;20433;-59
2023/01/14 02:14:49;;;;;;;0.77;0.60;;;;;;;7.32;97.48;95517.13;5074622;28;20512;-60
2023/01/14 02:17:31;;;;;;;1.33;1.17;;;;;;;7.31;100.00;95534.00;5074652;28;20785;-60
2023/01/14 02:20:19;;;;;;;1.80;0.90;;;;;;;7.40;99.26;95501.69;5074638;28;20508;-60
2023/01/14 02:23:15;;;;;;;0.37;0.27;;;;;;;7.78;98.11;95529.06;5074723;28;20429;-60
2023/01/14 02:26:21;;;;;;;2.40;2.20;;;;;;;7.82;95.59;95522.25;5074932;28;20429;-60
2023/01/14 02:29:06;;;;;;;0.97;0.97;;;;;;;7.09;96.96;95473.34;5074508;28;20528;-61
2023/01/14 02:31:42;;;;;;;2.23;2.13;;;;;;;7.18;100.00;95521.97;5074004;28;20436;-60
2023/01/14 02:34:18;;;;;;;1.90;1.70;;;;;;;6.97;100.00;95515.59;5074415;28;20543;-61
2023/01/14 02:36:53;;;;;;;0.90;0.90;;;;;;;7.05;100.00;95519.66;5074511;28;20428;-60
2023/01/14 02:39:28;;;;;;;1.03;1.03;;;;;;;6.91;100.00;95527.09;5074222;28;20494;-61
2023/01/14 02:44:55;;;;;;;0.57;0.57;;;;;;;7.06;100.00;95523.09;5074406;28;20436;-61
2023/01/14 02:47:27;;;;;;;0.50;0.50;;;;;;;7.27;100.00;95525.78;5073800;28;20427;-61
2023/01/14 02:49:58;;;;;;;12.53;0.93;;;;;;;7.31;97.88;95524.22;5072778;28;20525;-61
2023/01/14 02:52:27;;;;;;;2.10;0.50;;;;;;;7.21;99.06;95521.47;5075296;28;20439;-61
2023/01/14 02:54:57;;;;;;;1.27;0.80;;;;;;;7.37;98.13;95523.28;5074175;28;20428;-61
2023/01/14 02:57:39;;;;;;;0.60;0.60;;;;;;;7.07;100.00;95528.13;5074037;28;20432;-60
2023/01/14 03:00:17;;;;;;;1.37;1.27;;;;;;;7.10;100.00;95526.84;5073562;28;20459;-61
2023/01/14 03:03:02;;;;;;;0.40;0.37;;;;;;;7.12;99.03;95527.38;5073695;28;20522;-61
2023/01/14 03:05:42;;;;;;;0.50;0.50;;;;;;;7.15;98.09;95533.00;5072549;28;20866;-60
2023/01/14 03:08:19;;;;;;;3.13;1.30;;;;;;;7.10;96.80;95503.94;5073446;28;20435;-61
2023/01/14 03:10:57;;;;;;;0.60;0.60;;;;;;;7.08;95.85;95516.56;5073694;28;20483;-61
2023/01/14 03:13:31;;;;;;;1.03;1.03;;;;;;;7.14;95.01;95527.94;5073676;28;20844;-61
2023/01/14 03:16:04;;;;;;;0.60;0.60;;;;;;;7.09;94.23;95530.50;5073559;28;20433;-61
2023/01/14 03:18:41;;;;;;;0.73;0.73;;;;;;;7.03;94.41;95527.81;5073375;28;20445;-61
2023/01/14 03:21:13;;;;;;;1.13;1.13;;;;;;;6.58;94.51;95477.06;5073777;28;20430;-61
2023/01/14 03:23:49;;;;;;;0.60;0.60;;;;;;;6.92;94.22;95525.25;5073831;28;20518;-61
2023/01/14 03:26:18;;;;;;;6.73;1.17;;;;;;;6.88;94.78;95522.31;5073361;28;20949;-61
2023/01/14 03:28:49;;;;;;;0.40;0.40;;;;;;;6.42;100.00;95532.38;5073446;28;20434;-60
2023/01/14 03:31:26;;;;;;;0.50;0.37;;;;;;;6.59;98.69;95527.91;5072561;28;20430;-61
2023/01/14 03:33:59;;;;;;;0.80;0.50;;;;;;;5.27;100.00;95350.38;5072344;28;20427;-61
2023/01/14 03:36:30;;;;;;;1.20;1.17;;;;;;;6.34;100.00;95528.28;5072546;28;20455;-61
2023/01/14 03:39:01;;;;;;;0.30;0.30;;;;;;;6.48;100.00;95520.91;5072948;28;20935;-61
2023/01/14 03:44:22;;;;;;;0.50;0.50;;;;;;;6.55;99.28;95516.25;5073113;28;20438;-59
2023/01/14 03:46:51;;;;;;;5.03;1.00;;;;;;;6.63;98.93;95521.91;5072769;28;20434;-60
2023/01/14 03:49:21;;;;;;;0.87;0.87;;;;;;;6.55;98.36;95527.59;5072563;28;20466;-60
2023/01/14 03:51:56;;;;;;;1.70;0.60;;;;;;;5.96;100.00;95492.09;5072936;28;20514;-59
2023/01/14 03:54:30;;;;;;;1.13;1.03;;;;;;;6.28;100.00;95535.28;5072747;28;20472;-60
2023/01/14 03:57:06;;;;;;;1.17;1.03;;;;;;;6.42;99.18;95533.16;5072882;28;20514;-60
2023/01/14 03:59:42;;;;;;;0.80;0.80;;;;;;;6.24;99.73;95531.53;5072474;28;20474;-60
2023/01/14 04:02:12;;;;;;;0.70;0.50;;;;;;;6.15;100.00;95535.56;5072212;28;20430;-61
2023/01/14 04:04:44;;;;;;;0.90;0.47;;;;;;;6.51;99.39;95523.03;5070995;28;20432;-60
2023/01/14 04:07:13;;;;;;;7.77;0.90;;;;;;;6.59;97.04;95486.56;5071562;28;20489;-60
2023/01/14 04:09:41;;;;;;;1.43;0.70;;;;;;;7.06;96.61;95523.88;5071681;28;20440;-60
2023/01/14 04:12:09;;;;;;;3.47;0.80;;;;;;;7.12;93.80;95528.19;5072448;28;20747;-60
2023/01/14 04:17:23;;;;;;;0.77;0.77;;;;;;;6.09;98.42;95525.22;5072249;28;20525;-59
2023/01/14 04:19:53;;;;;;;2.77;0.57;;;;;;;6.65;96.29;95532.22;5072686;28;20833;-59
2023/01/14 04:22:22;;;;;;;1.47;1.27;;;;;;;6.81;92.57;95534.84;5072540;28;20524;-60
2023/01/14 04:24:50;;;;;;;3.90;1.00;;;;;;;6.65;90.61;95533.03;5072793;28;20429;-60
2023/01/14 04:27:18;;;;;;;1.40;1.30;;;;;;;6.48;91.49;95542.72;5071687;28;20796;-59
2023/01/14 04:29:47;;;;;;;1.07;1.07;;;;;;;6.42;91.11;95541.06;5071114;28;20522;-60
2023/01/14 04:32:15;;;;;;;7.30;0.87;;;;;;;5.63;93.88;95457.78;5072594;28;20538;-60
2023/01/14 04:34:43;;;;;;;1.03;0.90;;;;;;;5.92;93.63;95483.06;5072513;28;20432;-60
2023/01/14 04:37:13;;;;;;;0.50;0.50;;;;;;;6.30;93.49;95538.47;5071899;28;20425;-60
2023/01/14 04:39:41;;;;;;;1.20;1.20;;;;;;;6.25;93.08;95534.94;5072009;28;20470;-60
2023/01/14 04:42:29;;;;;;;0.40;0.30;;;;;;;6.11;93.92;95539.72;5071794;28;20441;-59
2023/01/14 04:44:58;;;;;;;2.77;0.67;;;;;;;5.70;98.76;95546.00;5071350;28;20518;-60
2023/01/14 04:47:27;;;;;;;0.40;0.30;;;;;;;5.33;99.99;95504.50;5070440;28;20437;-60
2023/01/14 04:49:56;;;;;;;0.70;0.70;;;;;;;5.60;100.00;95550.25;5071217;28;20977;-60
2023/01/14 04:52:25;;;;;;;1.33;1.33;;;;;;;5.15;100.00;95539.59;5071564;28;20952;-60
2023/01/14 04:54:54;;;;;;;0.73;0.63;;;;;;;5.17;100.00;95544.59;5071269;28;20496;-59
2023/01/14 04:57:22;;;;;;;0.70;0.70;;;;;;;5.52;100.00;95546.16;5071561;28;20894;-60
2023/01/14 04:59:50;;;;;;;1.47;0.80;;;;;;;5.59;100.00;95538.94;5070401;28;20495;-60
2023/01/14 05:02:18;;;;;;;5.70;0.60;;;;;;;5.64;100.00;95546.16;5070616;28;20952;-59
2023/01/14 05:04:47;;;;;;;1.43;1.33;;;;;;;5.35;98.59;95476.16;5071860;28;20441;-60
2023/01/14 05:07:15;;;;;;;1.57;1.57;;;;;;;5.76;98.30;95546.91;5071026;28;21003;-60
2023/01/14 05:09:45;;;;;;;0.60;0.60;;;;;;;5.65;97.23;95534.59;5071149;28;20430;-59
2023/01/14 05:12:13;;;;;;;1.20;1.20;;;;;;;5.37;100.00;95553.72;5070011;28;20469;-60
2023/01/14 05:14:42;;;;;;;0.87;0.87;;;;;;;5.50;100.00;95550.84;5072071;28;20453;-59
2023/01/14 05:17:10;;;;;;;0.83;0.83;;;;;;;5.41;100.00;95538.31;5072928;28;20498;-60
2023/01/14 05:19:38;;;;;;;0.70;0.70;;;;;;;5.44;97.33;95504.47;5071991;28;20501;-60
2023/01/14 05:22:07;;;;;;;1.10;1.10;;;;;;;5.88;96.50;95552.97;5071653;28;20933;-61
2023/01/14 05:24:38;;;;;;;0.77;0.77;;;;;;;5.90;95.75;95553.53;5071630;28;20421;-61
2023/01/14 05:27:07;;;;;;;0.53;0.53;;;;;;;5.92;95.01;95548.03;5071843;28;20452;-61
2023/01/14 05:29:38;;;;;;;0.80;0.67;;;;;;;5.91;94.16;95549.88;5070355;28;20844;-61
2023/01/14 05:32:07;;;;;;;2.10;2.00;;;;;;;5.65;96.23;95558.25;5071475;28;20477;-60
2023/01/14 05:34:36;;;;;;;0.70;0.70;;;;;;;5.52;99.44;95563.75;5071147;28;20457;-61
2023/01/14 05:37:04;;;;;;;2.20;2.10;;;;;;;5.68;97.64;95555.97;5071011;28;20437;-60
2023/01/14 05:39:33;;;;;;;2.00;1.73;;;;;;;5.27;99.40;95514.09;5071347;28;20462;-61
2023/01/14 05:47:34;;;;;;;0.83;0.83;;;;;;;6.12;93.75;95575.50;5074793;28;20445;-60
2023/01/14 05:50:02;;;;;;;0.90;0.50;;;;;;;5.75;94.69;95542.69;5074455;28;20960;-59
2023/01/14 05:52:31;;;;;;;0.97;0.93;;;;;;;5.73;93.72;95515.81;5074620;28;20818;-60
2023/01/14 05:54:59;;;;;;;0.57;0.50;;;;;;;6.01;92.74;95565.84;5074412;28;21024;-60
2023/01/14 05:57:27;;;;;;;0.93;0.93;;;;;;;6.04;92.57;95557.50;5074462;28;20429;-60
2023/01/14 05:59:57;;;;;;;0.70;0.70;;;;;;;5.35;92.25;95449.88;5074370;28;20446;-60
2023/01/14 06:07:58;;;;;;;0.80;0.80;;;;;;;5.98;92.68;95561.03;5074501;28;20426;-60
2023/01/14 06:10:28;;;;;;;0.70;0.70;;;;;;;5.68;96.25;95573.56;5074350;28;20572;-60
2023/01/14 06:12:59;;;;;;;4.03;1.17;;;;;;;5.90;94.78;95565.88;5074592;28;20516;-59
2023/01/14 06:15:33;;;;;;;3.17;2.30;;;;;;;5.95;94.45;95569.41;5074442;28;20428;-60
2023/01/14 06:18:13;;;;;;;1.67;1.57;;;;;;;6.05;93.94;95569.59;5074491;28;20437;-60
2023/01/14 06:20:43;;;;;;;1.13;1.03;;;;;;;5.83;94.44;95554.66;5074606;28;20467;-60
2023/01/14 06:23:13;;;;;;;2.20;2.10;;;;;;;5.97;94.45;95567.31;5074373;28;20442;-60
2023/01/14 06:25:44;;;;;;;3.30;2.40;;;;;;;6.27;91.87;95573.16;5074266;28;20910;-61
2023/01/14 06:28:13;;;;;;;9.70;3.77;;;;;;;6.32;91.13;95565.34;5073970;28;20513;-60
2023/01/14 06:30:43;;;;;;;3.67;3.47;;;;;;;5.85;93.44;95539.47;5073871;28;20448;-60
2023/01/14 06:33:12;;;;;;;4.43;3.83;;;;;;;6.44;92.25;95561.88;5073371;28;20473;-59
2023/01/14 06:35:45;;;;;;;5.00;2.40;;;;;;;7.02;89.19;95567.56;5074376;28;20876;-59
2023/01/14 06:38:14;;;;;;;1.70;1.60;;;;;;;7.36;88.28;95561.22;5073480;28;20450;-60
2023/01/14 06:40:43;;;;;;;3.07;2.53;;;;;;;7.62;85.82;95560.53;5073676;28;20477;-60
2023/01/14 06:43:11;;;;;;;4.33;1.23;;;;;;;7.97;83.03;95557.50;5074021;28;20932;-60
2023/01/14 06:45:40;;;;;;;5.60;3.17;;;;;;;8.09;82.09;95552.13;5073976;28;20426;-60
2023/01/14 06:48:09;;;;;;;1.33;1.23;;;;;;;8.36;80.84;95555.59;5073899;28;20503;-59
2023/01/14 06:50:38;;;;;;;2.20;2.10;;;;;;;7.54;79.72;95434.34;5073622;28;20961;-57
2023/01/14 06:53:06;;;;;;;1.50;1.50;;;;;;;8.39;79.39;95549.81;5073061;28;20419;-58
2023/01/14 06:55:34;;;;;;;5.33;1.33;;;;;;;8.46;77.40;95536.41;5073721;28;20434;-59
2023/01/14 06:58:03;;;;;;;6.57;3.20;;;;;;;8.32;77.32;95526.22;5073682;28;20426;-59
2023/01/14 07:00:31;;;;;;;2.63;2.53;;;;;;;8.37;78.00;95562.47;5073589;28;20525;-60
2023/01/14 07:03:00;;;;;;;1.87;1.77;;;;;;;8.86;76.71;95550.75;5073408;28;20449;-59
2023/01/14 07:05:29;;;;;;;1.07;1.07;;;;;;;8.95;75.09;95485.78;5073411;28;21060;-59
2023/01/14 07:07:57;;;;;;;1.50;1.50;;;;;;;9.10;73.46;95558.34;5073564;28;20425;-60
2023/01/14 07:10:26;;;;;;;4.60;2.90;;;;;;;7.91;76.61;95558.50;5073287;28;20520;-60
2023/01/14 07:12:54;;;;;;;1.83;1.17;;;;;;;7.76;78.58;95558.34;5073205;28;20434;-60
2023/01/14 07:15:23;;;;;;;2.87;2.67;;;;;;;8.08;77.61;95559.22;5073367;28;20910;-60
2023/01/14 07:17:51;;;;;;;2.60;1.90;;;;;;;8.63;76.13;95564.31;5073091;28;20477;-60
2023/01/14 07:20:20;;;;;;;2.63;2.33;;;;;;;8.13;76.22;95569.84;5073228;28;20490;-61
2023/01/14 07:22:51;;;;;;;0.67;0.67;;;;;;;8.04;77.57;95568.69;5073286;28;20469;-60
2023/01/14 07:25:19;;;;;;;0.80;0.80;;;;;;;7.57;78.03;95563.09;5072992;28;20425;-59
2023/01/14 07:27:48;;;;;;;0.67;0.67;;;;;;;7.44;79.47;95571.34;5073141;28;20963;-59
2023/01/14 07:30:17;;;;;;;1.53;1.53;;;;;;;7.99;78.28;95563.38;5072728;28;20509;-59
2023/01/14 07:32:45;;;;;;;1.33;1.10;;;;;;;8.45;76.75;95558.59;5073095;28;20435;-59
2023/01/14 07:35:14;;;;;;;1.87;1.77;;;;;;;8.66;75.92;95563.81;5072982;28;20414;-60
2023/01/14 07:37:42;;;;;;;0.53;0.53;;;;;;;9.05;74.45;95574.97;5072822;28;20445;-59
2023/01/14 07:40:13;;;;;;;2.43;2.23;;;;;;;8.93;74.08;95558.47;5072353;28;20560;-59
2023/01/14 07:42:41;;;;;;;1.87;1.70;;;;;;;9.51;73.05;95568.16;5071894;28;20561;-60
2023/01/14 07:45:10;;;;;;;4.87;1.30;;;;;;;9.67;71.00;95563.72;5071902;28;20493;-60
2023/01/14 07:47:38;;;;;;;1.07;1.07;;;;;;;10.00;69.71;95568.63;5072142;28;20463;-60
2023/01/14 07:50:08;;;;;;;1.23;1.23;;;;;;;10.15;69.12;95556.28;5071889;28;20474;-59
2023/01/14 07:52:36;;;;;;;1.30;1.30;;;;;;;10.65;67.18;95563.53;5072491;28;20479;-59
2023/01/14 07:55:05;;;;;;;5.43;1.13;;;;;;;10.84;66.16;95529.38;5072856;28;20517;-60
2023/01/14 07:57:35;;;;;;;1.50;1.50;;;;;;;11.77;62.81;95561.63;5072610;28;20471;-61
2023/01/14 08:00:04;;;;;;;3.43;2.57;;;;;;;11.52;64.37;95565.13;5072377;28;20434;-61
2023/01/14 08:02:36;;;;;;;3.33;2.10;;;;;;;12.61;60.73;95556.19;5072573;28;20472;-61
2023/01/14 08:05:05;;;;;;;2.67;2.47;;;;;;;12.65;59.63;95541.25;5072542;28;20591;-63
2023/01/14 08:07:33;;;;;;;15.23;2.03;;;;;;;14.00;56.26;95541.13;5072193;28;20544;-64
2023/01/14 08:10:02;;;;;;;1.63;1.53;;;;;;;13.97;56.41;95561.13;5071988;28;20471;-63
2023/01/14 08:12:32;;;;;;;2.00;1.60;;;;;;;14.11;55.14;95560.44;5072150;28;20424;-62
2023/01/14 08:15:02;;;;;;;1.33;1.23;;;;;;;14.66;53.98;95559.75;5072227;28;20436;-62
2023/01/14 08:17:30;;;;;;;1.60;1.43;;;;;;;13.94;54.15;95556.38;5071868;28;20983;-64
2023/01/14 08:19:58;;;;;;;1.67;1.57;;;;;;;15.05;52.37;95554.09;5072014;28;20440;-65
2023/01/14 08:22:28;;;;;;;2.10;1.97;;;;;;;15.24;51.65;95557.53;5071954;28;20465;-66
2023/01/14 08:24:57;;;;;;;5.50;3.70;;;;;;;14.89;52.33;95561.56;5071968;28;20460;-68
2023/01/14 08:27:26;;;;;;;6.60;2.10;;;;;;;15.39;51.85;95564.47;5072347;28;20844;-70
2023/01/14 08:29:54;;;;;;;2.03;1.93;;;;;;;15.48;50.56;95563.56;5071388;28;20871;-73
2023/01/14 08:32:24;;;;;;;3.00;2.80;;;;;;;15.16;50.06;95529.63;5071936;28;20495;-74
2023/01/14 08:34:53;;;;;;;1.83;1.23;;;;;;;16.84;47.32;95512.69;5070930;28;20819;-71
2023/01/14 08:37:21;;;;;;;3.03;2.20;;;;;;;16.16;48.04;95472.72;5071894;28;20935;-70
2023/01/14 08:39:50;;;;;;;0.73;0.70;;;;;;;16.97;48.20;95556.56;5071593;28;20438;-70
2023/01/14 08:42:18;;;;;;;0.90;0.90;;;;;;;18.34;46.14;95562.69;5071521;28;21040;-71
2023/01/14 08:44:46;;;;;;;1.27;0.70;;;;;;;18.43;44.60;95523.22;5070875;28;20491;-70
2023/01/14 08:47:15;;;;;;;1.60;0.73;;;;;;;18.91;44.29;95556.16;5071878;28;20443;-68
2023/01/14 08:49:45;;;;;;;0.87;0.83;;;;;;;17.36;45.41;95564.72;5071683;28;20487;-65
2023/01/14 08:52:13;;;;;;;0.70;0.70;;;;;;;16.61;46.76;95563.78;5072456;28;20456;-65
2023/01/14 08:54:41;;;;;;;15.63;1.60;;;;;;;16.79;46.17;95566.34;5071800;28;20790;-63
2023/01/14 08:57:10;;;;;;;2.63;2.53;;;;;;;16.66;46.07;95561.00;5071759;28;21040;-62
2023/01/14 08:59:38;;;;;;;5.23;2.20;;;;;;;17.75;45.13;95548.75;5071527;28;20926;-61
2023/01/14 09:02:07;;;;;;;2.87;1.57;;;;;;;17.66;44.89;95545.22;5071597;28;20458;-60
2023/01/14 09:04:35;;;;;;;0.73;0.70;;;;;;;18.22;44.72;95551.75;5071348;28;20499;-61
2023/01/14 09:18:08;;;;;;;3.23;3.03;;;;;;;18.37;43.02;95481.53;5070591;28;20872;-60
2023/01/14 09:20:42;;;;;;;1.60;1.00;;;;;;;19.10;43.18;95525.50;5070623;28;20968;-60
2023/01/14 09:23:12;;;;;;;2.70;1.53;;;;;;;19.45;42.36;95517.13;5070325;28;20519;-60
2023/01/14 09:25:40;;;;;;;3.90;1.60;;;;;;;20.00;40.90;95494.75;5070633;28;20462;-60
2023/01/14 09:28:09;;;;;;;1.60;1.50;;;;;;;19.89;40.88;95472.00;5071084;28;20432;-61
2023/01/14 09:30:37;;;;;;;2.03;1.53;;;;;;;18.55;42.83;95495.78;5071490;28;20436;-61
2023/01/14 09:33:06;;;;;;;6.00;1.90;;;;;;;18.08;43.53;95500.13;5071257;28;20418;-61
2023/01/14 09:35:34;;;;;;;2.80;1.33;;;;;;;18.15;42.79;95503.13;5071317;28;20437;-61
2023/01/14 09:38:03;;;;;;;3.33;1.43;;;;;;;18.54;42.61;95497.72;5070374;28;20688;-62
2023/01/14 09:40:37;;;;;;;0.93;0.67;;;;;;;19.07;41.94;95496.59;5070993;28;20433;-62
2023/01/14 09:43:06;;;;;;;2.30;0.90;;;;;;;18.03;42.98;95493.00;5071427;28;20565;-64
2023/01/14 09:45:36;;;;;;;0.80;0.80;;;;;;;17.29;43.67;95505.41;5071429;28;20434;-64
2023/01/14 09:48:07;;;;;;;1.50;1.17;;;;;;;17.30;44.11;95496.28;5071510;28;20440;-65
2023/01/14 09:50:49;;;;;;;2.70;0.60;;;;;;;17.34;44.92;95491.91;5070777;28;20473;-65
2023/01/14 09:53:37;;;;;;;1.70;1.60;;;;;;;15.64;46.36;95458.00;5073347;28;20434;-64
2023/01/14 09:56:13;;;;;;;1.67;1.57;;;;;;;16.05;48.27;95490.03;5073414;28;20436;-63
2023/01/14 09:58:50;;;;;;;0.40;0.37;;;;;;;16.21;47.42;95487.84;5071058;28;20987;-62
2023/01/14 10:01:27;;;;;;;1.80;1.70;;;;;;;15.14;49.01;95490.94;5070955;28;20837;-64
2023/01/14 10:04:05;;;;;;;1.87;0.67;;;;;;;14.21;50.10;95371.84;5071115;28;20493;-66
2023/01/14 10:06:35;;;;;;;0.60;0.60;;;;;;;13.97;51.91;95486.50;5070990;28;20433;-68
2023/01/14 10:09:06;;;;;;;1.17;1.07;;;;;;;14.01;52.34;95460.09;5070821;28;20442;-69
2023/01/14 10:11:42;;;;;;;1.53;1.10;;;;;;;13.53;53.45;95486.00;5070536;28;20525;-71
2023/01/14 10:14:13;;;;;;;2.97;1.03;;;;;;;13.28;54.72;95483.59;5070772;28;20519;-71
2023/01/14 10:16:45;;;;;;;0.93;0.80;;;;;;;13.37;54.87;95476.56;5071061;28;20458;-70
2023/01/14 10:19:18;;;;;;;0.47;0.40;;;;;;;13.32;55.12;95473.97;5070915;28;20426;-70
2023/01/14 10:21:49;;;;;;;0.73;0.73;;;;;;;13.49;54.66;95446.88;5071162;28;20784;-69
2023/01/14 10:24:20;;;;;;;1.47;0.80;;;;;;;13.32;54.77;95463.31;5070735;28;20664;-70
2023/01/14 10:26:52;;;;;;;5.73;1.90;;;;;;;13.24;54.93;95463.91;5071438;28;20456;-67
2023/01/14 10:29:22;;;;;;;0.40;0.37;;;;;;;13.37;55.11;95457.94;5074511;28;20988;-70
2023/01/14 10:31:55;;;;;;;0.90;0.90;;;;;;;13.04;55.58;95459.56;5074388;28;20920;-70
2023/01/14 10:34:27;;;;;;;3.57;0.93;;;;;;;13.93;54.03;95442.09;5074181;28;20517;-70
2023/01/14 10:36:55;;;;;;;2.40;1.30;;;;;;;13.74;54.38;95396.75;5074368;28;20844;-71
2023/01/14 10:39:27;;;;;;;1.60;0.90;;;;;;;13.87;53.30;95454.66;5074132;28;20418;-72
2023/01/14 10:42:00;;;;;;;1.00;0.87;;;;;;;14.46;53.96;95446.16;5073734;28;20519;-74
2023/01/14 10:44:31;;;;;;;9.63;1.07;;;;;;;14.47;53.19;95446.94;5074365;28;20469;-73
2023/01/14 10:47:02;;;;;;;2.40;1.27;;;;;;;14.30;53.44;95449.28;5074343;28;20430;-76
2023/01/14 10:49:39;;;;;;;0.70;0.57;;;;;;;14.53;53.10;95445.78;5073911;28;20473;-77
2023/01/14 10:52:24;;;;;;;1.10;1.10;;;;;;;14.00;52.66;95437.97;5074054;28;20437;-77
2023/01/14 10:55:00;;;;;;;1.10;0.90;;;;;;;14.28;52.77;95404.25;5074054;28;20504;-74
2023/01/14 10:57:32;;;;;;;0.40;0.30;;;;;;;15.05;50.91;95434.75;5073860;28;20437;-73
2023/01/14 11:00:03;;;;;;;0.43;0.40;;;;;;;14.70;51.61;95438.03;5074077;28;20430;-74
2023/01/14 11:02:37;;;;;;;1.40;1.30;;;;;;;14.06;52.74;95433.38;5073393;28;20440;-73
2023/01/14 11:05:07;;;;;;;0.50;0.50;;;;;;;13.78;52.79;95418.31;5073396;28;20989;-68
2023/01/14 11:07:41;;;;;;;0.70;0.70;;;;;;;14.07;53.22;95418.97;5073953;28;20426;-68
2023/01/14 11:10:19;;;;;;;1.73;1.60;;;;;;;13.78;52.81;95419.09;5073979;28;20502;-64
2023/01/14 11:12:50;;;;;;;0.50;0.30;;;;;;;13.79;51.32;95377.25;5073679;28;20444;-62
2023/01/14 11:15:37;;;;;;;3.70;0.87;;;;;;;13.92;53.20;95393.31;5073614;28;20931;-61
2023/01/14 11:18:21;;;;;;;0.40;0.40;;;;;;;14.50;50.86;95414.34;5073337;28;20428;-61
2023/01/14 11:20:54;;;;;;;0.50;0.37;;;;;;;14.60;50.55;95406.19;5073261;28;20449;-60
2023/01/14 11:23:28;;;;;;;0.87;0.87;;;;;;;14.08;51.49;95377.91;5073098;28;20491;-60
2023/01/14 11:25:59;;;;;;;0.50;0.50;;;;;;;14.15;51.43;95401.53;5072640;28;20978;-60
2023/01/14 11:28:29;;;;;;;0.50;0.30;;;;;;;14.13;52.14;95393.03;5072914;28;20528;-60
2023/01/14 11:30:58;;;;;;;0.60;0.40;;;;;;;14.33;51.71;95395.41;5073097;28;20437;-58
2023/01/14 11:33:28;;;;;;;0.93;0.50;;;;;;;13.13;54.01;95399.34;5072611;28;20437;-58
2023/01/14 11:36:22;;;;;;;0.60;0.50;;;;;;;13.21;53.23;95352.69;5072829;28;20459;-58
2023/01/14 11:38:52;;;;;;;0.43;0.30;;;;;;;13.85;52.89;95398.22;5072696;28;20487;-58
2023/01/14 11:41:32;;;;;;;0.50;0.40;;;;;;;13.90;53.35;95392.81;5072570;28;20436;-57
2023/01/14 11:44:03;;;;;;;0.80;0.80;;;;;;;14.16;51.98;95397.78;5072191;28;20560;-57
2023/01/14 11:46:33;;;;;;;0.80;0.80;;;;;;;14.11;51.90;95398.66;5072488;28;20465;-57
2023/01/14 11:49:14;;;;;;;1.20;1.20;;;;;;;13.60;52.86;95390.56;5072405;28;20544;-58
2023/01/14 11:51:57;;;;;;;0.90;0.60;;;;;;;13.49;53.16;95383.78;5072563;28;20434;-58
2023/01/14 11:54:32;;;;;;;0.60;0.60;;;;;;;13.49;53.57;95359.81;5072780;28;20433;-57
2023/01/14 11:57:01;;;;;;;0.40;0.30;;;;;;;13.89;52.56;95379.78;5072393;28;20424;-57
2023/01/14 11:59:33;;;;;;;0.40;0.40;;;;;;;13.40;52.62;95312.81;5072319;28;20437;-57
2023/01/14 12:02:06;;;;;;;0.40;0.30;;;;;;;13.52;53.68;95340.59;5072676;28;20494;-57
2023/01/14 12:04:43;;;;;;;0.50;0.40;;;;;;;13.90;53.20;95376.03;5072131;28;21191;-57
2023/01/14 12:07:18;;;;;;;0.97;0.70;;;;;;;13.69;53.08;95374.72;5072226;28;20839;-57
2023/01/14 12:09:52;;;;;;;0.57;0.40;;;;;;;13.21;53.96;95326.88;5072174;28;20472;-57
2023/01/14 12:12:26;;;;;;;1.27;1.10;;;;;;;13.29;54.24;95374.16;5072005;28;20437;-58
2023/01/14 12:17:53;;;;;;;0.60;0.60;;;;;;;13.35;53.79;95378.38;5071785;28;20471;-58
2023/01/14 12:20:25;;;;;;;0.40;0.30;;;;;;;13.44;53.73;95375.84;5071524;28;20426;-58
2023/01/14 12:23:00;;;;;;;0.40;0.30;;;;;;;13.56;52.17;95306.97;5072090;28;20468;-58
2023/01/14 12:25:32;;;;;;;0.40;0.30;;;;;;;13.45;53.53;95376.63;5071777;28;20468;-58
2023/01/14 12:28:05;;;;;;;0.47;0.47;;;;;;;13.05;55.09;95383.22;5071832;28;20426;-58
2023/01/14 12:30:48;;;;;;;0.90;0.70;;;;;;;13.07;54.70;95386.41;5071882;28;20505;-58
2023/01/14 12:33:25;;;;;;;0.70;0.70;;;;;;;13.37;54.28;95380.72;5071313;28;20430;-58